Home > Products > Valid Products > TAF

000
FTUS46 KPDT 041720
TAFALW
TAF
KALW 041720Z 0418/0518 24006KT P6SM SCT120 BKN200
     FM042200 25008KT P6SM BKN120 OVC150
     FM050300 18009KT P6SM VCSH BKN080 OVC140
     FM050700 20006KT 6SM -SHRA BKN050 OVC080
     FM051100 24011G20KT 4SM -RA BR SCT025 OVC040=



000
FTUS46 KPDT 041720
TAFPDT
TAF
KPDT 041720Z 0418/0518 26006KT P6SM FEW100 BKN200
     FM042100 33008KT P6SM BKN100 OVC150
     FM050200 26009KT P6SM VCSH BKN080 OVC140
     FM050600 23006KT 6SM -SHRA BKN050 OVC080
     FM050900 24011G20KT 4SM -RA BR OVC040=



000
FTUS46 KPDT 041720
TAFPSC
TAF
KPSC 041720Z 0418/0518 33006KT P6SM SCT120 BKN200
     FM050300 20008KT P6SM BKN120 OVC150
     FM051000 22005KT P6SM VCSH BKN070 OVC100=



000
FTUS46 KPDT 041720
TAFYKM
TAF
KYKM 041720Z 0418/0518 VRB04KT P6SM BKN090 BKN140
     FM050300 31007KT P6SM BKN120 BKN150=



000
FTUS46 KPDT 041720
TAFRDM
TAF
KRDM 041720Z 0418/0518 34005KT P6SM BKN070 BKN140
     FM042000 33009G17KT P6SM VCSH OVC070
     FM050200 32010KT P6SM -SHRA SCT035 OVC050
     FM050900 VRB05KT 6SM -SHRA BKN035 OVC050
     FM051500 VRB04KT P6SM BKN070=



000
FTUS46 KPDT 041720
TAFDLS
TAF
KDLS 041720Z 0418/0518 32011KT P6SM BKN090 OVC200
     FM050000 31011KT P6SM VCSH OVC080
     FM050800 30010KT P6SM -RA SCT040 OVC070=



000
FTUS46 KPDT 041141
TAFYKM
TAF
KYKM 041141Z 0412/0512 28006KT P6SM BKN120
     FM041800 VRB04KT P6SM OVC120
     FM050300 31007KT P6SM BKN150=



000
FTUS46 KPDT 041141
TAFPSC
TAF
KPSC 041141Z 0412/0512 23003KT P6SM SCT150
     FM041800 33008KT P6SM BKN150
     FM050200 24008KT P6SM OVC120=



000
FTUS46 KPDT 041141
TAFPDT
TAF
KPDT 041141Z 0412/0512 15006KT P6SM SCT150
     FM041800 33009KT P6SM BKN100
     FM050300 26011KT P6SM -SHRA OVC080=



000
FTUS46 KPDT 041141
TAFDLS
TAF
KDLS 041141Z 0412/0512 31008KT P6SM BKN180
     FM041800 32011KT P6SM OVC100
     FM050000 31011KT P6SM VCSH OVC100=



000
FTUS46 KPDT 041141
TAFALW
TAF
KALW 041141Z 0412/0512 15006KT P6SM SCT120
     FM041800 24006KT P6SM BKN120
     FM042200 20010KT P6SM OVC100=



000
FTUS46 KPDT 041141
TAFRDM
TAF
KRDM 041141Z 0412/0512 34005KT P6SM VCSH BKN120 OVC140
     FM042000 33009KT P6SM VCSH OVC080
     FM042200 34010G18KT P6SM -SHRA OVC050
     FM050200 32010KT P6SM -SHRA OVC035=



000
FTUS46 KPDT 041141
TAFYKM
TAF
KYKM 041141Z 0412/0512 28006KT P6SM BKN120
     FM041800 VRB04KT P6SM OVC120
     FM050300 31007KT P6SM BKN150=



000
FTUS46 KPDT 041141
TAFPSC
TAF
KPSC 041141Z 0412/0512 23003KT P6SM SCT150
     FM041800 33008KT P6SM BKN150
     FM050200 24008KT P6SM OVC120=



000
FTUS46 KPDT 041141
TAFPDT
TAF
KPDT 041141Z 0412/0512 15006KT P6SM SCT150
     FM041800 33009KT P6SM BKN100
     FM050300 26011KT P6SM -SHRA OVC080=



000
FTUS46 KPDT 041141
TAFDLS
TAF
KDLS 041141Z 0412/0512 31008KT P6SM BKN180
     FM041800 32011KT P6SM OVC100
     FM050000 31011KT P6SM VCSH OVC100=



000
FTUS46 KPDT 041141
TAFRDM
TAF
KRDM 041141Z 0412/0512 34005KT P6SM VCSH BKN120 OVC140
     FM042000 33009KT P6SM VCSH OVC080
     FM042200 34010G18KT P6SM -SHRA OVC050
     FM050200 32010KT P6SM -SHRA OVC035=



000
FTUS46 KPDT 041141
TAFALW
TAF
KALW 041141Z 0412/0512 15006KT P6SM SCT120
     FM041800 24006KT P6SM BKN120
     FM042200 20010KT P6SM OVC100=



000
FTUS46 KPDT 040530
TAFPSC
TAF
KPSC 040530Z 0406/0506 VRB04KT P6SM SKC
     FM041200 23003KT P6SM SCT150
     FM041800 33008KT P6SM BKN150
     FM050200 24008KT P6SM OVC120=



000
FTUS46 KPDT 040530
TAFRDM
TAF
KRDM 040530Z 0406/0506 32004KT P6SM SCT070
     FM041200 34005KT P6SM VCSH BKN050 OVC100
     FM041900 33012G20KT P6SM VCSH OVC050
     FM050200 32010KT P6SM -SHRA OVC035=



000
FTUS46 KPDT 040530
TAFYKM
TAF
KYKM 040530Z 0406/0506 32006KT P6SM SCT150
     FM040900 30006KT P6SM BKN120
     FM041800 VRB04KT P6SM OVC120
     FM050300 31007KT P6SM BKN150=



000
FTUS46 KPDT 040530
TAFPDT
TAF
KPDT 040530Z 0406/0506 17006KT P6SM SKC
     FM041200 15006KT P6SM SCT150
     FM041800 33009KT P6SM BKN100
     FM050300 26011KT P6SM -SHRA OVC080=



000
FTUS46 KPDT 040530
TAFDLS
TAF
KDLS 040530Z 0406/0506 30012G25KT P6SM SCT200
     FM040900 31008KT P6SM BKN180
     FM041800 32011KT P6SM OVC100
     FM050000 31011KT P6SM VCSH OVC100=



000
FTUS46 KPDT 040530
TAFALW
TAF
KALW 040530Z 0406/0506 12007KT P6SM SKC
     FM041200 15006KT P6SM SCT120
     FM041800 24006KT P6SM BKN120
     FM042200 20010KT P6SM OVC100=



000
FTUS46 KPDT 040028 AAA
TAFRDM
TAF AMD
KRDM 040028Z 0400/0424 30015G25KT P6SM SCT090
     FM040400 32004KT P6SM SCT050 BKN150
     FM041500 34004KT P6SM BKN050 OVC100
     FM041900 35015G20KT P6SM VCSH OVC050=



000
FTUS46 KPDT 040028 AAA
TAFRDM
TAF AMD
KRDM 040028Z 0400/0424 30015G25KT P6SM SCT090
     FM040400 32004KT P6SM SCT050 BKN150
     FM041500 34004KT P6SM BKN050 OVC100
     FM041900 35015G20KT P6SM VCSH OVC050=



000
FTUS46 KPDT 032320
TAFALW
TAF
KALW 032320Z 0400/0424 25011KT P6SM FEW080
     FM040300 14007KT P6SM SCT200
     FM041800 24006KT P6SM OVC120=



000
FTUS46 KPDT 032320
TAFPDT
TAF
KPDT 032320Z 0400/0424 29012G18KT P6SM SCT060
     FM040400 15006KT P6SM SKC
     FM041200 15006KT P6SM BKN200
     FM041900 32009KT P6SM BKN100=



000
FTUS46 KPDT 032320
TAFYKM
TAF
KYKM 032320Z 0400/0424 VRB06KT P6SM SCT080
     FM040800 30006KT P6SM OVC150
     FM041800 VRB04KT P6SM OVC120=



000
FTUS46 KPDT 032320
TAFDLS
TAF
KDLS 032320Z 0400/0424 31015G25KT P6SM SCT050
     FM040500 30009KT P6SM SCT200
     FM040900 32007KT P6SM OVC200
     FM041800 32011KT P6SM OVC100=



000
FTUS46 KPDT 032320
TAFRDM
TAF
KRDM 032320Z 0400/0424 32011KT P6SM BKN070
     FM040400 32004KT P6SM SCT050 BKN150
     FM041500 34004KT P6SM BKN050 OVC100
     FM041900 35015G20KT P6SM VCSH OVC050=



000
FTUS46 KPDT 032320
TAFPSC
TAF
KPSC 032320Z 0400/0424 25011KT P6SM SKC
     FM040300 VRB03KT P6SM SCT200
     FM041800 34009KT P6SM BKN150=



000
FTUS46 KPDT 032104 AAA
TAFRDM
TAF AMD
KRDM 032104Z 0321/0418 36010G15KT P6SM SCT050
     FM040400 32004KT P6SM SCT050 BKN150
     FM041500 34004KT P6SM BKN050 OVC100=



000
FTUS46 KPDT 031857 AAB
TAFPDT
TAF AMD
KPDT 031857Z 0319/0418 27012G18KT P6SM SCT060
     FM040400 15006KT P6SM SKC
     FM041200 15006KT P6SM BKN200=



000
FTUS46 KPDT 031857 AAA
TAFDLS
TAF AMD
KDLS 031857Z 0319/0418 31015G25KT P6SM SCT050
     FM040500 30009KT P6SM SCT200
     FM040900 32007KT P6SM OVC200=



000
FTUS46 KPDT 031805 AAA
TAFALW
TAF AMD
KALW 031805Z 0318/0418 23015KT P6SM FEW080
     FM032000 23010KT P6SM SKC
     FM040300 14007KT P6SM SCT200=



000
FTUS46 KPDT 031805 AAA
TAFALW
TAF AMD
KALW 031805Z 0318/0418 23015KT P6SM FEW080
     FM032000 23010KT P6SM SKC
     FM040300 14007KT P6SM SCT200=



000
FTUS46 KPDT 031720
TAFYKM
TAF
KYKM 031720Z 0318/0418 VRB03KT P6SM SKC
     FM032100 30006KT P6SM SCT150
     FM040800 30006KT P6SM OVC150=



000
FTUS46 KPDT 031720
TAFRDM
TAF
KRDM 031720Z 0318/0418 VRB05KT P6SM BKN050
     FM032200 34010G15KT P6SM SCT050
     FM040400 32004KT P6SM SCT050 BKN150
     FM041500 34004KT P6SM BKN050 OVC100=



000
FTUS46 KPDT 031720
TAFDLS
TAF
KDLS 031720Z 0318/0418 28011KT P6SM SCT050
     FM032000 32015G25KT P6SM SCT050
     FM040500 30009KT P6SM SCT200
     FM040900 32007KT P6SM OVC200=



000
FTUS46 KPDT 031720
TAFPSC
TAF
KPSC 031720Z 0318/0418 VRB03KT P6SM SKC
     FM032000 23009KT P6SM SKC
     FM040300 VRB03KT P6SM SCT200=



000
FTUS46 KPDT 031720
TAFPDT
TAF
KPDT 031720Z 0318/0418 27011KT P6SM SCT060
     FM040400 15006KT P6SM SKC
     FM041200 15006KT P6SM BKN200=



000
FTUS46 KPDT 031720
TAFALW
TAF
KALW 031720Z 0318/0418 19010KT P6SM FEW080
     FM032000 23008KT P6SM SKC
     FM040300 14007KT P6SM SCT200=



000
FTUS46 KPDT 031120
TAFPDT
TAF
KPDT 031120Z 0312/0412 26009KT P6SM OVC070
     FM031500 25010G17KT P6SM FEW070
     FM040000 29009KT P6SM SKC
     FM040500 18006KT P6SM SKC
     FM040900 15006KT P6SM SCT100=



000
FTUS46 KPDT 031120
TAFRDM
TAF
KRDM 031120Z 0312/0412 32004KT P6SM BKN035 OVC060
     FM031800 34005KT P6SM SCT080
     FM032200 33008G15KT P6SM SCT050 SCT100
     FM040500 33006KT P6SM SCT050 BKN100
     FM040900 VRB05KT P6SM BKN050 BKN100=



000
FTUS46 KPDT 031120
TAFPSC
TAF
KPSC 031120Z 0312/0412 23007KT P6SM FEW090
     FM031800 23009KT P6SM SKC
     FM040300 VRB05KT P6SM SKC=



000
FTUS46 KPDT 031120
TAFYKM
TAF
KYKM 031120Z 0312/0412 34008KT P6SM SCT200
     FM031500 VRB03KT P6SM FEW150
     FM032100 28006KT P6SM SCT150
     FM040300 30006KT P6SM SCT100 BKN150=



000
FTUS46 KPDT 031120
TAFALW
TAF
KALW 031120Z 0312/0412 19008KT P6SM FEW060 SCT090
     FM031500 20009KT P6SM FEW080 SCT100
     FM031700 22008KT P6SM SKC
     FM040300 14006KT P6SM SKC=



000
FTUS46 KPDT 031120
TAFPDT
TAF
KPDT 031120Z 0312/0412 26009KT P6SM OVC070
     FM031500 25010G17KT P6SM FEW070
     FM040000 29009KT P6SM SKC
     FM040500 18006KT P6SM SKC
     FM040900 15006KT P6SM SCT100=



000
FTUS46 KPDT 031120
TAFALW
TAF
KALW 031120Z 0312/0412 19008KT P6SM FEW060 SCT090
     FM031500 20009KT P6SM FEW080 SCT100
     FM031700 22008KT P6SM SKC
     FM040300 14006KT P6SM SKC=



000
FTUS46 KPDT 031120
TAFDLS
TAF
KDLS 031120Z 0312/0412 28011KT P6SM FEW070
     FM031800 32012G19KT P6SM SKC
     FM040000 30015G25KT P6SM FEW050
     FM040500 30009KT P6SM SCT200=



000
FTUS46 KPDT 031120
TAFRDM
TAF
KRDM 031120Z 0312/0412 32004KT P6SM BKN035 OVC060
     FM031800 34005KT P6SM SCT080
     FM032200 33008G15KT P6SM SCT050 SCT100
     FM040500 33006KT P6SM SCT050 BKN100
     FM040900 VRB05KT P6SM BKN050 BKN100=



000
FTUS46 KPDT 031120
TAFDLS
TAF
KDLS 031120Z 0312/0412 28011KT P6SM FEW070
     FM031800 32012G19KT P6SM SKC
     FM040000 30015G25KT P6SM FEW050
     FM040500 30009KT P6SM SCT200=



000
FTUS46 KPDT 031120
TAFYKM
TAF
KYKM 031120Z 0312/0412 34008KT P6SM SCT200
     FM031500 VRB03KT P6SM FEW150
     FM032100 28006KT P6SM SCT150
     FM040300 30006KT P6SM SCT100 BKN150=



000
FTUS46 KPDT 031120
TAFPSC
TAF
KPSC 031120Z 0312/0412 23007KT P6SM FEW090
     FM031800 23009KT P6SM SKC
     FM040300 VRB05KT P6SM SKC=



000
FTUS46 KPDT 030533
TAFPSC
TAF
KPSC 030533Z 0306/0406 28010KT P6SM SCT200
     FM030900 23010KT P6SM SCT050 SCT200
     FM032100 23006KT P6SM SKC
     FM040300 17004KT P6SM SKC=



000
FTUS46 KPDT 030533
TAFDLS
TAF
KDLS 030533Z 0306/0406 28011KT P6SM FEW250
     FM031800 32012G19KT P6SM SKC
     FM040000 30015G25KT P6SM SCT150
     FM040500 30009KT P6SM BKN150=



000
FTUS46 KPDT 030533
TAFALW
TAF
KALW 030533Z 0306/0406 21009KT P6SM SCT080 BKN100 BKN200
     FM030900 18009KT P6SM SCT200
     FM031700 22008KT P6SM SCT200
     FM040300 14006KT P6SM SKC=



000
FTUS46 KPDT 030533
TAFPDT
TAF
KPDT 030533Z 0306/0406 26009KT P6SM OVC070
     FM030900 24007KT P6SM BKN150
     FM031200 25010G17KT P6SM FEW250
     FM040000 29009KT P6SM SKC
     FM040500 18006KT P6SM SKC=



000
FTUS46 KPDT 030533
TAFYKM
TAF
KYKM 030533Z 0306/0406 34008KT P6SM SCT200
     FM031500 VRB03KT P6SM FEW150
     FM032100 28006KT P6SM SCT150
     FM040300 30006KT P6SM SCT100 BKN150=



000
FTUS46 KPDT 030533
TAFRDM
TAF
KRDM 030533Z 0306/0406 32004KT P6SM OVC080
     FM031800 34005KT P6SM SCT080
     FM032200 33008G15KT P6SM SCT050
     FM040500 33006KT P6SM BKN050=



000
FTUS46 KPDT 030533
TAFALW
TAF
KALW 030533Z 0306/0406 21009KT P6SM SCT080 BKN100 BKN200
     FM030900 18009KT P6SM SCT200
     FM031700 22008KT P6SM SCT200
     FM040300 14006KT P6SM SKC=



000
FTUS46 KPDT 022320
TAFYKM
TAF
KYKM 022320Z 0300/0324 27010KT P6SM SCT070 BKN200
     FM030400 31008KT P6SM SCT200=



000
FTUS46 KPDT 022320
TAFDLS
TAF
KDLS 022320Z 0300/0324 31010G20KT P6SM VCSH BKN080
     FM030200 30008KT P6SM FEW250
     FM031800 32010G17KT P6SM SKC=



000
FTUS46 KPDT 022320
TAFYKM
TAF
KYKM 022320Z 0300/0324 27010KT P6SM SCT070 BKN200
     FM030400 31008KT P6SM SCT200=



000
FTUS46 KPDT 022320
TAFPDT
TAF
KPDT 022320Z 0300/0324 19010KT P6SM OVC080
     FM030200 26009KT P6SM BKN100
     FM030800 24007KT P6SM BKN250=



000
FTUS46 KPDT 022320
TAFRDM
TAF
KRDM 022320Z 0300/0324 32010KT P6SM OVC080
     FM030400 32004KT P6SM FEW250
     FM032200 33008G15KT P6SM SCT250=



000
FTUS46 KPDT 022320
TAFDLS
TAF
KDLS 022320Z 0300/0324 31010G20KT P6SM VCSH BKN080
     FM030200 30008KT P6SM FEW250
     FM031800 32010G17KT P6SM SKC=



000
FTUS46 KPDT 022320
TAFPDT
TAF
KPDT 022320Z 0300/0324 19010KT P6SM OVC080
     FM030200 26009KT P6SM BKN100
     FM030800 24007KT P6SM BKN250=



000
FTUS46 KPDT 022320
TAFRDM
TAF
KRDM 022320Z 0300/0324 32010KT P6SM OVC080
     FM030400 32004KT P6SM FEW250
     FM032200 33008G15KT P6SM SCT250=



000
FTUS46 KPDT 022320
TAFPSC
TAF
KPSC 022320Z 0300/0324 26010G18KT P6SM SCT100
     FM030300 28010KT P6SM SCT200
     FM030900 23010KT P6SM SCT200=



000
FTUS46 KPDT 022320
TAFPSC
TAF
KPSC 022320Z 0300/0324 26010G18KT P6SM SCT100
     FM030300 28010KT P6SM SCT200
     FM030900 23010KT P6SM SCT200=



000
FTUS46 KPDT 022320
TAFALW
TAF
KALW 022320Z 0300/0324 18010KT P6SM BKN070 OVC100
     FM030300 21009KT P6SM BKN100 BKN200
     FM030900 18009KT P6SM SCT200
     FM031700 22008KT P6SM SCT200=



000
FTUS46 KPDT 022320
TAFALW
TAF
KALW 022320Z 0300/0324 18010KT P6SM BKN070 OVC100
     FM030300 21009KT P6SM BKN100 BKN200
     FM030900 18009KT P6SM SCT200
     FM031700 22008KT P6SM SCT200=



000
FTUS46 KPDT 021726
TAFPSC
TAF
KPSC 021726Z 0218/0318 26014G22KT P6SM SCT080 OVC100
     FM030300 28010KT P6SM SCT100 SCT200
     FM030900 23011KT P6SM SCT200=



000
FTUS46 KPDT 021726
TAFALW
TAF
KALW 021726Z 0218/0318 21015KT P6SM -SHRA BKN050 OVC070
     FM022100 25012G20KT P6SM VCSH BKN060 OVC100
     FM030000 25010KT P6SM BKN070 OVC100
     FM030300 21009KT P6SM BKN100 BKN200
     FM030900 18009KT P6SM SCT200=



000
FTUS46 KPDT 021726
TAFYKM
TAF
KYKM 021726Z 0218/0318 27010KT P6SM SCT070 BKN200
     FM030300 31008KT P6SM SCT200=



000
FTUS46 KPDT 021726
TAFRDM
TAF
KRDM 021726Z 0218/0318 32010G18KT P6SM BKN060 OVC100
     FM030400 VRB04KT P6SM SCT200
     FM030900 17005KT P6SM SCT200=



000
FTUS46 KPDT 021726
TAFDLS
TAF
KDLS 021726Z 0218/0318 32014G22KT P6SM -SHRA BKN070 BKN200
     FM030300 31011KT P6SM SCT200=



000
FTUS46 KPDT 021726
TAFPDT
TAF
KPDT 021726Z 0218/0318 25012KT P6SM -SHRA BKN050 OVC100
     FM021900 27014KT P6SM VCSH BKN060 OVC090
     FM022100 27013KT P6SM BKN070
     FM030600 25010KT P6SM SCT100 SCT200
     FM031200 17008KT P6SM SCT200=



000
FTUS46 KPDT 021726
TAFYKM
TAF
KYKM 021726Z 0218/0318 27010KT P6SM SCT070 BKN200
     FM030300 31008KT P6SM SCT200=



000
FTUS46 KPDT 021726
TAFRDM
TAF
KRDM 021726Z 0218/0318 32010G18KT P6SM BKN060 OVC100
     FM030400 VRB04KT P6SM SCT200
     FM030900 17005KT P6SM SCT200=



000
FTUS46 KPDT 021726
TAFALW
TAF
KALW 021726Z 0218/0318 21015KT P6SM -SHRA BKN050 OVC070
     FM022100 25012G20KT P6SM VCSH BKN060 OVC100
     FM030000 25010KT P6SM BKN070 OVC100
     FM030300 21009KT P6SM BKN100 BKN200
     FM030900 18009KT P6SM SCT200=



000
FTUS46 KPDT 021726
TAFDLS
TAF
KDLS 021726Z 0218/0318 32014G22KT P6SM -SHRA BKN070 BKN200
     FM030300 31011KT P6SM SCT200=



000
FTUS46 KPDT 021726
TAFPDT
TAF
KPDT 021726Z 0218/0318 25012KT P6SM -SHRA BKN050 OVC100
     FM021900 27014KT P6SM VCSH BKN060 OVC090
     FM022100 27013KT P6SM BKN070
     FM030600 25010KT P6SM SCT100 SCT200
     FM031200 17008KT P6SM SCT200=



000
FTUS46 KPDT 021726
TAFPSC
TAF
KPSC 021726Z 0218/0318 26014G22KT P6SM SCT080 OVC100
     FM030300 28010KT P6SM SCT100 SCT200
     FM030900 23011KT P6SM SCT200=



000
FTUS46 KPDT 021357 AAA
TAFDLS
TAF AMD
KDLS 021357Z 0214/0312 33011KT P6SM SCT070 OVC150
     FM021800 32014G22KT P6SM SCT070 BKN200
     FM022100 31018G28KT P6SM SCT200
     FM030300 31011KT P6SM SCT200=



000
FTUS46 KPDT 021357 AAA
TAFPSC
TAF AMD
KPSC 021357Z 0214/0312 24014KT P6SM SCT080 OVC100
     FM021800 27014G22KT P6SM SCT080 OVC100
     FM030300 28010KT P6SM SCT100 SCT200
     FM030900 23011KT P6SM SCT200=



000
FTUS46 KPDT 021120
TAFPSC
TAF
KPSC 021120Z 0212/0312 22009KT P6SM OVC100
     FM021500 24012KT P6SM SCT080 OVC100
     FM021800 27014G22KT P6SM SCT080 OVC100
     FM030300 28010KT P6SM SCT100 SCT200
     FM030900 23011KT P6SM SCT200=



000
FTUS46 KPDT 021120
TAFPDT
TAF
KPDT 021120Z 0212/0312 16006KT P6SM BKN110 OVC200
     FM021400 25012KT P6SM BKN070 OVC100
     FM022000 27014KT P6SM VCSH BKN060 OVC090
     FM030600 25010KT P6SM SCT100 SCT200=



000
FTUS46 KPDT 021120
TAFYKM
TAF
KYKM 021120Z 0212/0312 31007KT P6SM BKN070 OVC120
     FM021800 27012KT P6SM SCT070 BKN200
     FM030300 31008KT P6SM SCT200=



000
FTUS46 KPDT 021120
TAFDLS
TAF
KDLS 021120Z 0212/0312 30014KT P6SM SCT080 BKN200
     FM021500 31011KT P6SM SCT070 OVC150
     FM021800 32014G22KT P6SM SCT070 BKN200
     FM022100 31018G28KT P6SM SCT200
     FM030300 31011KT P6SM SCT200=



000
FTUS46 KPDT 021120
TAFALW
TAF
KALW 021120Z 0212/0312 20010KT P6SM SCT070 OVC120
     FM021500 21015KT P6SM VCSH BKN060 OVC070
     FM022000 25012G20KT P6SM BKN070 OVC100
     FM030300 21009KT P6SM BKN100 BKN200
     FM030900 18009KT P6SM SCT200=



000
FTUS46 KPDT 021120
TAFPDT
TAF
KPDT 021120Z 0212/0312 16006KT P6SM BKN110 OVC200
     FM021400 25012KT P6SM BKN070 OVC100
     FM022000 27014KT P6SM VCSH BKN060 OVC090
     FM030600 25010KT P6SM SCT100 SCT200=



000
FTUS46 KPDT 021120
TAFDLS
TAF
KDLS 021120Z 0212/0312 30014KT P6SM SCT080 BKN200
     FM021500 31011KT P6SM SCT070 OVC150
     FM021800 32014G22KT P6SM SCT070 BKN200
     FM022100 31018G28KT P6SM SCT200
     FM030300 31011KT P6SM SCT200=



000
FTUS46 KPDT 021120
TAFRDM
TAF
KRDM 021120Z 0212/0312 VRB05KT P6SM BKN120 OVC200
     FM021900 32012G20KT P6SM BKN070 OVC100
     FM030400 VRB04KT P6SM SCT200
     FM030900 17005KT P6SM SCT200=



000
FTUS46 KPDT 021120
TAFRDM
TAF
KRDM 021120Z 0212/0312 VRB05KT P6SM BKN120 OVC200
     FM021900 32012G20KT P6SM BKN070 OVC100
     FM030400 VRB04KT P6SM SCT200
     FM030900 17005KT P6SM SCT200=



000
FTUS46 KPDT 021120
TAFYKM
TAF
KYKM 021120Z 0212/0312 31007KT P6SM BKN070 OVC120
     FM021800 27012KT P6SM SCT070 BKN200
     FM030300 31008KT P6SM SCT200=



000
FTUS46 KPDT 021120
TAFALW
TAF
KALW 021120Z 0212/0312 20010KT P6SM SCT070 OVC120
     FM021500 21015KT P6SM VCSH BKN060 OVC070
     FM022000 25012G20KT P6SM BKN070 OVC100
     FM030300 21009KT P6SM BKN100 BKN200
     FM030900 18009KT P6SM SCT200=



000
FTUS46 KPDT 021120
TAFPSC
TAF
KPSC 021120Z 0212/0312 22009KT P6SM OVC100
     FM021500 24012KT P6SM SCT080 OVC100
     FM021800 27014G22KT P6SM SCT080 OVC100
     FM030300 28010KT P6SM SCT100 SCT200
     FM030900 23011KT P6SM SCT200=



000
FTUS46 KPDT 020557 CCA
TAFPSC
TAF COR
KPSC 020557Z 0206/0306 24007KT P6SM BKN200 OVC250
     FM020900 22008KT P6SM SCT150 BKN200
     FM021500 22012KT P6SM BKN150
     FM022000 25014G22KT P6SM SCT200
     FM030100 27012KT P6SM SCT080=



000
FTUS46 KPDT 020557 CCA
TAFPSC
TAF COR
KPSC 020557Z 0206/0306 24007KT P6SM BKN200 OVC250
     FM020900 22008KT P6SM SCT150 BKN200
     FM021500 22012KT P6SM BKN150
     FM022000 25014G22KT P6SM SCT200
     FM030100 27012KT P6SM SCT080=



000
FTUS46 KPDT 020542
TAFDLS
TAF
KDLS 020542Z 0206/0306 32013KT P6SM SCT200 OVC250
     FM020900 29009KT P6SM SCT060 BKN180
     FM021500 31011KT P6SM SCT070 OVC150
     FM021800 32014G22KT P6SM BKN070
     FM022100 31018G28KT P6SM SKC=



000
FTUS46 KPDT 020542
TAFPDT
TAF
KPDT 020542Z 0206/0306 26012KT P6SM SCT200 BKN250
     FM021000 24010KT P6SM BKN060 BKN150
     FM021600 25011KT P6SM VCSH BKN050 OVC070
     FM022000 26014G24KT P6SM SCT060=



000
FTUS46 KPDT 020542
TAFALW
TAF
KALW 020542Z 0206/0306 20008KT P6SM SCT200 BKN250
     FM021000 20010KT P6SM BKN060 BKN150
     FM021600 230121KT P6SM VCSH BKN050 OVC070
     FM022000 25012G20KT P6SM SCT060=



000
FTUS46 KPDT 020542
TAFYKM
TAF
KYKM 020542Z 0206/0306 31008KT P6SM SCT070 BKN150
     FM021500 26010KT P6SM FEW080=



000
FTUS46 KPDT 020542
TAFDLS
TAF
KDLS 020542Z 0206/0306 32013KT P6SM SCT200 OVC250
     FM020900 29009KT P6SM SCT060 BKN180
     FM021500 31011KT P6SM SCT070 OVC150
     FM021800 32014G22KT P6SM BKN070
     FM022100 31018G28KT P6SM SKC=



000
FTUS46 KPDT 020542
TAFRDM
TAF
KRDM 020542Z 0206/0306 31008KT P6SM BKN130
     FM021500 31011KT P6SM BKN090
     FM021900 32012G20KT P6SM SCT070=



000
FTUS46 KPDT 020542
TAFPSC
TAF
KPSC 020542Z 0206/0306 26009KT P6SM BKN200 OVC250
     FM020900 22010KT P6SM SCT100 BKN200
     FM022000 26014G24KT P6SM SCT200
     FM030100 27001KT P6SM SCT080=



000
FTUS46 KPDT 020542
TAFPSC
TAF
KPSC 020542Z 0206/0306 26009KT P6SM BKN200 OVC250
     FM020900 22010KT P6SM SCT100 BKN200
     FM022000 26014G24KT P6SM SCT200
     FM030100 27001KT P6SM SCT080=



000
FTUS46 KPDT 020542
TAFPDT
TAF
KPDT 020542Z 0206/0306 26012KT P6SM SCT200 BKN250
     FM021000 24010KT P6SM BKN060 BKN150
     FM021600 25011KT P6SM VCSH BKN050 OVC070
     FM022000 26014G24KT P6SM SCT060=



000
FTUS46 KPDT 020542
TAFYKM
TAF
KYKM 020542Z 0206/0306 31008KT P6SM SCT070 BKN150
     FM021500 26010KT P6SM FEW080=



000
FTUS46 KPDT 020542
TAFALW
TAF
KALW 020542Z 0206/0306 20008KT P6SM SCT200 BKN250
     FM021000 20010KT P6SM BKN060 BKN150
     FM021600 230121KT P6SM VCSH BKN050 OVC070
     FM022000 25012G20KT P6SM SCT060=



000
FTUS46 KPDT 020542
TAFRDM
TAF
KRDM 020542Z 0206/0306 31008KT P6SM BKN130
     FM021500 31011KT P6SM BKN090
     FM021900 32012G20KT P6SM SCT070=



000
FTUS46 KPDT 012320
TAFDLS
TAF
KDLS 012320Z 0200/0224 30014G23KT P6SM BKN250
     FM020400 VRB05KT P6SM SCT080 BKN200
     FM020900 VRB04KT P6SM BKN060 BKN150
     FM021500 31011KT P6SM BKN050
     FM021800 32011G22KT P6SM SCT050
     FM022100 31018G28KT P6SM SKC=



000
FTUS46 KPDT 012320
TAFPDT
TAF
KPDT 012320Z 0200/0224 29011KT P6SM SCT250
     FM020300 26010KT P6SM SCT070 BKN200
     FM020800 24010KT P6SM BKN060 BKN150
     FM021500 25011KT P6SM VCSH BKN050
     FM022000 26014G24KT P6SM SCT060=



000
FTUS46 KPDT 012320
TAFRDM
TAF
KRDM 012320Z 0200/0224 36011KT P6SM SCT250
     FM020300 32006KT P6SM SCT090 BKN200
     FM020600 22006KT P6SM BKN080
     FM021500 31011KT P6SM BKN090
     FM022100 32011G20KT P6SM SCT100=



000
FTUS46 KPDT 012320
TAFALW
TAF
KALW 012320Z 0200/0224 26010KT P6SM SCT250
     FM020500 20010KT P6SM SCT070 BKN200
     FM020800 20010KT P6SM BKN060 BKN150
     FM021500 23011KT P6SM VCSH BKN050
     FM022000 25012G20KT P6SM SCT060=



000
FTUS46 KPDT 012320
TAFPSC
TAF
KPSC 012320Z 0200/0224 22005KT P6SM BKN200
     FM020700 22010KT P6SM SCT100 BKN200
     FM022000 26014G24KT P6SM SCT200=



000
FTUS46 KPDT 012320
TAFYKM
TAF
KYKM 012320Z 0200/0224 VRB05KT P6SM SCT090 BKN200
     FM020400 25008KT P6SM SCT070 BKN150
     FM021500 26010KT P6SM FEW080=



000
FTUS46 KPDT 012115 AAB
TAFPDT
TAF AMD
KPDT 012115Z 0121/0218 26011KT P6SM SCT250
     FM020300 26010KT P6SM SCT070 BKN200
     FM020800 24010KT P6SM BKN060 BKN150
     FM021500 25011KT P6SM VCSH BKN050=



000
FTUS46 KPDT 012114 AAA
TAFDLS
TAF AMD
KDLS 012114Z 0121/0218 30011G20KT P6SM BKN250
     FM020300 VRB05KT P6SM SCT080 BKN200
     FM020900 VRB04KT P6SM BKN060 BKN150
     FM021500 31008KT P6SM BKN050=



000
FTUS46 KPDT 012114 AAA
TAFDLS
TAF AMD
KDLS 012114Z 0121/0218 30011G20KT P6SM BKN250
     FM020300 VRB05KT P6SM SCT080 BKN200
     FM020900 VRB04KT P6SM BKN060 BKN150
     FM021500 31008KT P6SM BKN050=



    US Dept of Commerce
    National Oceanic and Atmospheric Administration
    National Weather Service
    1325 East West Highway
    Silver Spring, MD 20910
    Page Author: NWS Internet Services Team
Disclaimer
Information Quality
Credits
Glossary
Privacy Policy
Freedom of Information Act (FOIA)
About Us
Career Opportunities